sensor_id;sensor_type;location;lat;lon;timestamp;pressure;altitude;pressure_sealevel;temperature;humidity
9521;BME280;4798;41.574;23.734;2022-10-16T00:01:27;95873.50;;;11.34;83.96
9521;BME280;4798;41.574;23.734;2022-10-16T00:03:57;95909.69;;;11.60;84.23
9521;BME280;4798;41.574;23.734;2022-10-16T00:06:26;95912.16;;;11.82;81.76
9521;BME280;4798;41.574;23.734;2022-10-16T00:08:55;95913.13;;;10.99;85.72
9521;BME280;4798;41.574;23.734;2022-10-16T00:11:27;95877.88;;;9.93;94.86
9521;BME280;4798;41.574;23.734;2022-10-16T00:13:58;95931.09;;;9.91;100.00
9521;BME280;4798;41.574;23.734;2022-10-16T00:16:27;95923.09;;;9.86;100.00
9521;BME280;4798;41.574;23.734;2022-10-16T00:18:56;95928.00;;;9.78;100.00
9521;BME280;4798;41.574;23.734;2022-10-16T00:21:27;95916.03;;;10.55;98.88
9521;BME280;4798;41.574;23.734;2022-10-16T00:23:57;95914.19;;;10.93;93.10
9521;BME280;4798;41.574;23.734;2022-10-16T00:26:28;95920.84;;;11.00;91.19
9521;BME280;4798;41.574;23.734;2022-10-16T00:28:56;95917.00;;;10.81;92.21
9521;BME280;4798;41.574;23.734;2022-10-16T00:31:26;95920.63;;;10.06;99.02
9521;BME280;4798;41.574;23.734;2022-10-16T00:33:54;95915.31;;;10.33;99.25
9521;BME280;4798;41.574;23.734;2022-10-16T00:36:24;95911.75;;;10.17;100.00
9521;BME280;4798;41.574;23.734;2022-10-16T00:38:54;95917.56;;;10.46;97.92
9521;BME280;4798;41.574;23.734;2022-10-16T00:41:24;95921.38;;;10.60;95.71
9521;BME280;4798;41.574;23.734;2022-10-16T00:43:55;95918.63;;;10.82;94.02
9521;BME280;4798;41.574;23.734;2022-10-16T00:46:26;95919.66;;;10.81;92.18
9521;BME280;4798;41.574;23.734;2022-10-16T00:48:59;95910.19;;;10.90;92.43
9521;BME280;4798;41.574;23.734;2022-10-16T00:51:31;95904.31;;;10.88;92.02
9521;BME280;4798;41.574;23.734;2022-10-16T00:54:02;95850.06;;;10.59;91.71
9521;BME280;4798;41.574;23.734;2022-10-16T00:56:31;95908.63;;;10.99;90.72
9521;BME280;4798;41.574;23.734;2022-10-16T00:59:04;95906.19;;;10.51;91.33
9521;BME280;4798;41.574;23.734;2022-10-16T01:01:34;95923.72;;;9.98;98.93
9521;BME280;4798;41.574;23.734;2022-10-16T01:04:03;95924.63;;;10.09;100.00
9521;BME280;4798;41.574;23.734;2022-10-16T01:06:36;95921.63;;;10.59;95.15
9521;BME280;4798;41.574;23.734;2022-10-16T01:09:12;95883.47;;;10.60;92.39
9521;BME280;4798;41.574;23.734;2022-10-16T01:11:48;95917.03;;;10.86;92.04
9521;BME280;4798;41.574;23.734;2022-10-16T01:14:33;95917.03;;;10.86;91.59
9521;BME280;4798;41.574;23.734;2022-10-16T01:17:07;95923.38;;;10.80;91.23
9521;BME280;4798;41.574;23.734;2022-10-16T01:19:49;95921.13;;;11.04;88.71
9521;BME280;4798;41.574;23.734;2022-10-16T01:22:22;95933.72;;;10.81;88.60
9521;BME280;4798;41.574;23.734;2022-10-16T01:24:54;95932.41;;;10.15;94.44
9521;BME280;4798;41.574;23.734;2022-10-16T01:27:25;95940.41;;;10.52;93.46
9521;BME280;4798;41.574;23.734;2022-10-16T01:29:59;95931.88;;;10.82;90.50
9521;BME280;4798;41.574;23.734;2022-10-16T01:32:33;95937.22;;;10.87;88.92
9521;BME280;4798;41.574;23.734;2022-10-16T01:35:04;95941.50;;;10.56;90.88
9521;BME280;4798;41.574;23.734;2022-10-16T01:37:39;95941.88;;;10.70;89.44
9521;BME280;4798;41.574;23.734;2022-10-16T01:40:11;95886.25;;;10.43;88.92
9521;BME280;4798;41.574;23.734;2022-10-16T01:42:45;95945.63;;;10.79;89.47
9521;BME280;4798;41.574;23.734;2022-10-16T01:45:17;95938.78;;;10.88;87.99
9521;BME280;4798;41.574;23.734;2022-10-16T01:47:48;95930.34;;;10.96;87.71
9521;BME280;4798;41.574;23.734;2022-10-16T01:50:19;95932.50;;;10.57;88.51
9521;BME280;4798;41.574;23.734;2022-10-16T01:52:50;95930.47;;;10.38;90.08
9521;BME280;4798;41.574;23.734;2022-10-16T01:55:25;95938.00;;;10.19;91.86
9521;BME280;4798;41.574;23.734;2022-10-16T01:57:57;95946.00;;;9.76;96.79
9521;BME280;4798;41.574;23.734;2022-10-16T02:00:29;95946.28;;;10.01;96.01
9521;BME280;4798;41.574;23.734;2022-10-16T02:03:01;95961.66;;;10.31;93.56
9521;BME280;4798;41.574;23.734;2022-10-16T02:05:33;95956.91;;;10.33;92.76
9521;BME280;4798;41.574;23.734;2022-10-16T02:08:05;95969.59;;;9.55;98.24
9521;BME280;4798;41.574;23.734;2022-10-16T02:10:35;95960.13;;;9.38;100.00
9521;BME280;4798;41.574;23.734;2022-10-16T02:13:08;95958.47;;;9.53;100.00
9521;BME280;4798;41.574;23.734;2022-10-16T02:15:37;95967.25;;;9.16;100.00
9521;BME280;4798;41.574;23.734;2022-10-16T02:18:06;95973.34;;;8.83;100.00
9521;BME280;4798;41.574;23.734;2022-10-16T02:20:42;95962.44;;;9.13;100.00
9521;BME280;4798;41.574;23.734;2022-10-16T02:23:19;95968.34;;;9.63;100.00
9521;BME280;4798;41.574;23.734;2022-10-16T02:25:50;95961.88;;;9.76;99.56
9521;BME280;4798;41.574;23.734;2022-10-16T02:28:24;95948.66;;;9.76;98.41
9521;BME280;4798;41.574;23.734;2022-10-16T02:30:58;95941.91;;;9.63;97.97
9521;BME280;4798;41.574;23.734;2022-10-16T02:33:27;95962.81;;;9.86;96.99
9521;BME280;4798;41.574;23.734;2022-10-16T02:35:57;95960.72;;;9.67;98.29
9521;BME280;4798;41.574;23.734;2022-10-16T02:38:26;95961.72;;;9.61;98.60
9521;BME280;4798;41.574;23.734;2022-10-16T02:40:55;95967.47;;;9.79;97.06
9521;BME280;4798;41.574;23.734;2022-10-16T02:43:26;95974.75;;;9.89;95.87
9521;BME280;4798;41.574;23.734;2022-10-16T02:45:54;95978.75;;;9.91;94.32
9521;BME280;4798;41.574;23.734;2022-10-16T02:48:22;95977.63;;;9.87;94.15
9521;BME280;4798;41.574;23.734;2022-10-16T02:50:50;95988.16;;;9.82;94.39
9521;BME280;4798;41.574;23.734;2022-10-16T02:53:19;95990.13;;;9.70;95.92
9521;BME280;4798;41.574;23.734;2022-10-16T02:55:47;95997.78;;;9.88;94.85
9521;BME280;4798;41.574;23.734;2022-10-16T02:58:16;95995.13;;;9.88;94.59
9521;BME280;4798;41.574;23.734;2022-10-16T03:00:45;95982.47;;;9.95;93.33
9521;BME280;4798;41.574;23.734;2022-10-16T03:03:14;95998.03;;;9.65;95.77
9521;BME280;4798;41.574;23.734;2022-10-16T03:05:43;95996.03;;;9.77;94.24
9521;BME280;4798;41.574;23.734;2022-10-16T03:08:30;96004.22;;;9.54;96.66
9521;BME280;4798;41.574;23.734;2022-10-16T03:10:58;96003.75;;;9.79;94.42
9521;BME280;4798;41.574;23.734;2022-10-16T03:13:26;96015.97;;;9.85;94.40
9521;BME280;4798;41.574;23.734;2022-10-16T03:15:56;96015.00;;;9.69;95.93
9521;BME280;4798;41.574;23.734;2022-10-16T03:18:24;96015.00;;;9.91;93.60
9521;BME280;4798;41.574;23.734;2022-10-16T03:20:52;96010.53;;;9.91;94.45
9521;BME280;4798;41.574;23.734;2022-10-16T03:23:21;96023.69;;;9.86;94.51
9521;BME280;4798;41.574;23.734;2022-10-16T03:25:49;96014.06;;;10.02;93.69
9521;BME280;4798;41.574;23.734;2022-10-16T03:28:17;96016.91;;;9.95;93.60
9521;BME280;4798;41.574;23.734;2022-10-16T03:30:46;96022.19;;;9.95;93.98
9521;BME280;4798;41.574;23.734;2022-10-16T03:33:16;96021.66;;;9.93;93.58
9521;BME280;4798;41.574;23.734;2022-10-16T03:35:50;96017.28;;;9.61;96.83
9521;BME280;4798;41.574;23.734;2022-10-16T03:38:19;96018.78;;;8.97;100.00
9521;BME280;4798;41.574;23.734;2022-10-16T03:40:48;96022.22;;;8.97;100.00
9521;BME280;4798;41.574;23.734;2022-10-16T03:43:16;96026.53;;;9.20;100.00
9521;BME280;4798;41.574;23.734;2022-10-16T03:45:44;96024.97;;;9.62;100.00
9521;BME280;4798;41.574;23.734;2022-10-16T03:48:13;96014.50;;;8.95;100.00
9521;BME280;4798;41.574;23.734;2022-10-16T03:50:42;96029.50;;;8.73;100.00
9521;BME280;4798;41.574;23.734;2022-10-16T03:53:11;96029.66;;;8.67;100.00
9521;BME280;4798;41.574;23.734;2022-10-16T03:55:41;96024.78;;;8.92;100.00
9521;BME280;4798;41.574;23.734;2022-10-16T03:58:09;96019.88;;;9.17;100.00
9521;BME280;4798;41.574;23.734;2022-10-16T04:00:40;96017.00;;;9.02;98.44
9521;BME280;4798;41.574;23.734;2022-10-16T04:03:08;96020.47;;;9.03;97.95
9521;BME280;4798;41.574;23.734;2022-10-16T04:05:37;96021.34;;;8.91;98.26
9521;BME280;4798;41.574;23.734;2022-10-16T04:08:07;96012.88;;;9.28;96.58
9521;BME280;4798;41.574;23.734;2022-10-16T04:10:35;96017.78;;;9.19;96.12
9521;BME280;4798;41.574;23.734;2022-10-16T04:13:03;96024.34;;;9.33;94.18
9521;BME280;4798;41.574;23.734;2022-10-16T04:15:32;96030.16;;;8.97;96.89
9521;BME280;4798;41.574;23.734;2022-10-16T04:18:00;96027.19;;;8.77;100.00
9521;BME280;4798;41.574;23.734;2022-10-16T04:20:28;96029.66;;;8.67;100.00
9521;BME280;4798;41.574;23.734;2022-10-16T04:22:57;96029.53;;;8.28;100.00
9521;BME280;4798;41.574;23.734;2022-10-16T04:25:27;96027.00;;;8.50;100.00
9521;BME280;4798;41.574;23.734;2022-10-16T04:27:55;96018.38;;;8.71;100.00
9521;BME280;4798;41.574;23.734;2022-10-16T04:30:24;96025.16;;;9.01;99.68
9521;BME280;4798;41.574;23.734;2022-10-16T04:32:53;96020.94;;;8.83;99.45
9521;BME280;4798;41.574;23.734;2022-10-16T04:35:21;96028.00;;;8.77;100.00
9521;BME280;4798;41.574;23.734;2022-10-16T04:37:50;96032.47;;;8.93;100.00
9521;BME280;4798;41.574;23.734;2022-10-16T04:40:18;96031.84;;;8.86;100.00
9521;BME280;4798;41.574;23.734;2022-10-16T04:42:48;96033.53;;;8.92;99.85
9521;BME280;4798;41.574;23.734;2022-10-16T04:45:16;96027.44;;;8.92;100.00
9521;BME280;4798;41.574;23.734;2022-10-16T04:47:44;96032.78;;;9.14;97.28
9521;BME280;4798;41.574;23.734;2022-10-16T04:50:31;96039.84;;;9.08;97.22
9521;BME280;4798;41.574;23.734;2022-10-16T04:52:59;96043.22;;;8.87;98.67
9521;BME280;4798;41.574;23.734;2022-10-16T04:55:27;96044.88;;;9.10;98.00
9521;BME280;4798;41.574;23.734;2022-10-16T04:57:57;96051.28;;;9.14;97.09
9521;BME280;4798;41.574;23.734;2022-10-16T05:00:26;96056.50;;;9.09;97.62
9521;BME280;4798;41.574;23.734;2022-10-16T05:02:54;96045.38;;;9.07;97.70
9521;BME280;4798;41.574;23.734;2022-10-16T05:05:22;96053.22;;;9.18;98.57
9521;BME280;4798;41.574;23.734;2022-10-16T05:07:51;96052.34;;;9.13;98.23
9521;BME280;4798;41.574;23.734;2022-10-16T05:10:19;96055.22;;;8.94;99.56
9521;BME280;4798;41.574;23.734;2022-10-16T05:12:47;96048.72;;;9.02;99.60
9521;BME280;4798;41.574;23.734;2022-10-16T05:15:18;96053.50;;;9.38;97.28
9521;BME280;4798;41.574;23.734;2022-10-16T05:17:46;96056.94;;;9.39;96.35
9521;BME280;4798;41.574;23.734;2022-10-16T05:20:15;96056.22;;;9.43;97.04
9521;BME280;4798;41.574;23.734;2022-10-16T05:22:44;96056.53;;;9.47;96.72
9521;BME280;4798;41.574;23.734;2022-10-16T05:25:12;96062.44;;;9.54;97.64
9521;BME280;4798;41.574;23.734;2022-10-16T05:27:40;96061.16;;;9.56;98.01
9521;BME280;4798;41.574;23.734;2022-10-16T05:30:09;96058.53;;;9.78;96.20
9521;BME280;4798;41.574;23.734;2022-10-16T05:32:39;96068.84;;;9.96;94.69
9521;BME280;4798;41.574;23.734;2022-10-16T05:35:08;96068.53;;;10.14;92.91
9521;BME280;4798;41.574;23.734;2022-10-16T05:37:38;96066.13;;;10.35;92.12
9521;BME280;4798;41.574;23.734;2022-10-16T05:40:08;96070.13;;;10.64;92.59
9521;BME280;4798;41.574;23.734;2022-10-16T05:42:36;96079.31;;;10.56;90.23
9521;BME280;4798;41.574;23.734;2022-10-16T05:45:06;96084.16;;;10.91;90.61
9521;BME280;4798;41.574;23.734;2022-10-16T05:47:37;96089.97;;;11.20;89.38
9521;BME280;4798;41.574;23.734;2022-10-16T05:50:07;96093.31;;;11.79;85.52
9521;BME280;4798;41.574;23.734;2022-10-16T05:52:35;96075.94;;;12.18;83.03
9521;BME280;4798;41.574;23.734;2022-10-16T05:55:04;96034.56;;;12.47;80.05
9521;BME280;4798;41.574;23.734;2022-10-16T05:57:33;96092.63;;;13.06;77.49
9521;BME280;4798;41.574;23.734;2022-10-16T06:00:02;96103.28;;;13.36;76.79
9521;BME280;4798;41.574;23.734;2022-10-16T06:02:31;96085.22;;;13.38;75.08
9521;BME280;4798;41.574;23.734;2022-10-16T06:05:00;96099.00;;;13.75;73.19
9521;BME280;4798;41.574;23.734;2022-10-16T06:07:34;96093.63;;;13.95;72.21
9521;BME280;4798;41.574;23.734;2022-10-16T06:10:03;96103.81;;;13.68;72.28
9521;BME280;4798;41.574;23.734;2022-10-16T06:12:32;96102.28;;;14.85;79.03
9521;BME280;4798;41.574;23.734;2022-10-16T06:15:01;96092.78;;;15.75;81.95
9521;BME280;4798;41.574;23.734;2022-10-16T06:17:29;96095.94;;;16.30;75.59
9521;BME280;4798;41.574;23.734;2022-10-16T06:19:57;96081.50;;;15.55;70.50
9521;BME280;4798;41.574;23.734;2022-10-16T06:22:26;96093.66;;;15.95;71.46
9521;BME280;4798;41.574;23.734;2022-10-16T06:24:56;96107.19;;;16.50;69.26
9521;BME280;4798;41.574;23.734;2022-10-16T06:27:24;96112.44;;;16.13;69.09
9521;BME280;4798;41.574;23.734;2022-10-16T06:29:53;96110.50;;;16.42;70.13
9521;BME280;4798;41.574;23.734;2022-10-16T06:32:21;96107.97;;;16.51;67.65
9521;BME280;4798;41.574;23.734;2022-10-16T06:34:49;96115.41;;;15.88;62.90
9521;BME280;4798;41.574;23.734;2022-10-16T06:37:17;96116.13;;;16.17;62.75
9521;BME280;4798;41.574;23.734;2022-10-16T06:39:46;96099.03;;;16.18;62.01
9521;BME280;4798;41.574;23.734;2022-10-16T06:42:15;96075.41;;;16.68;60.51
9521;BME280;4798;41.574;23.734;2022-10-16T06:44:44;96109.16;;;16.87;60.69
9521;BME280;4798;41.574;23.734;2022-10-16T06:47:13;96106.22;;;17.21;59.23
9521;BME280;4798;41.574;23.734;2022-10-16T06:49:41;96109.22;;;16.82;58.27
9521;BME280;4798;41.574;23.734;2022-10-16T06:52:09;96108.22;;;17.48;57.97
9521;BME280;4798;41.574;23.734;2022-10-16T06:54:38;96115.00;;;17.59;57.11
9521;BME280;4798;41.574;23.734;2022-10-16T06:57:08;96097.03;;;18.32;56.78
9521;BME280;4798;41.574;23.734;2022-10-16T06:59:38;96113.34;;;18.22;54.82
9521;BME280;4798;41.574;23.734;2022-10-16T07:02:12;96111.31;;;17.87;55.80
9521;BME280;4798;41.574;23.734;2022-10-16T07:04:40;96106.16;;;17.91;55.79
9521;BME280;4798;41.574;23.734;2022-10-16T07:07:08;96103.28;;;18.01;55.28
9521;BME280;4798;41.574;23.734;2022-10-16T07:09:36;96118.50;;;17.59;55.69
9521;BME280;4798;41.574;23.734;2022-10-16T07:12:05;96112.13;;;17.88;55.40
9521;BME280;4798;41.574;23.734;2022-10-16T07:14:33;96108.38;;;18.43;55.68
9521;BME280;4798;41.574;23.734;2022-10-16T07:17:03;96116.13;;;19.08;53.44
9521;BME280;4798;41.574;23.734;2022-10-16T07:19:31;96120.28;;;18.78;53.34
9521;BME280;4798;41.574;23.734;2022-10-16T07:22:00;96120.75;;;19.74;52.00
9521;BME280;4798;41.574;23.734;2022-10-16T07:24:29;96115.59;;;20.47;50.19
9521;BME280;4798;41.574;23.734;2022-10-16T07:26:58;96113.19;;;20.94;49.30
9521;BME280;4798;41.574;23.734;2022-10-16T07:29:26;96104.50;;;21.31;48.82
9521;BME280;4798;41.574;23.734;2022-10-16T07:31:55;96107.16;;;21.74;46.86
9521;BME280;4798;41.574;23.734;2022-10-16T07:34:24;96113.66;;;21.81;46.21
9521;BME280;4798;41.574;23.734;2022-10-16T07:36:53;96107.81;;;22.93;44.97
9521;BME280;4798;41.574;23.734;2022-10-16T07:39:21;96107.84;;;21.36;47.74
9521;BME280;4798;41.574;23.734;2022-10-16T07:41:50;96110.03;;;21.60;46.40
9521;BME280;4798;41.574;23.734;2022-10-16T07:44:20;96104.66;;;22.91;45.03
9521;BME280;4798;41.574;23.734;2022-10-16T07:46:49;96104.97;;;23.39;44.43
9521;BME280;4798;41.574;23.734;2022-10-16T07:49:20;96101.50;;;23.09;43.69
9521;BME280;4798;41.574;23.734;2022-10-16T07:51:50;96104.59;;;22.79;43.70
9521;BME280;4798;41.574;23.734;2022-10-16T07:54:18;96097.72;;;22.81;44.53
9521;BME280;4798;41.574;23.734;2022-10-16T07:56:47;96096.16;;;23.01;44.49
9521;BME280;4798;41.574;23.734;2022-10-16T07:59:15;96097.50;;;24.01;42.73
9521;BME280;4798;41.574;23.734;2022-10-16T08:01:43;96091.38;;;23.80;42.54
9521;BME280;4798;41.574;23.734;2022-10-16T08:04:12;96078.94;;;24.97;40.18
9521;BME280;4798;41.574;23.734;2022-10-16T08:06:40;96068.84;;;24.00;41.48
9521;BME280;4798;41.574;23.734;2022-10-16T08:09:10;96076.78;;;24.42;41.75
9521;BME280;4798;41.574;23.734;2022-10-16T08:11:38;96068.66;;;24.66;40.87
9521;BME280;4798;41.574;23.734;2022-10-16T08:14:07;96082.09;;;24.14;39.91
9521;BME280;4798;41.574;23.734;2022-10-16T08:16:35;96070.72;;;24.69;39.66
9521;BME280;4798;41.574;23.734;2022-10-16T08:19:03;96059.09;;;25.76;38.72
9521;BME280;4798;41.574;23.734;2022-10-16T08:21:32;96062.91;;;26.03;37.57
9521;BME280;4798;41.574;23.734;2022-10-16T08:24:00;96059.75;;;25.30;38.35
9521;BME280;4798;41.574;23.734;2022-10-16T08:26:29;96059.84;;;24.93;38.53
9521;BME280;4798;41.574;23.734;2022-10-16T08:28:58;96064.56;;;25.08;39.39
9521;BME280;4798;41.574;23.734;2022-10-16T08:31:26;96064.63;;;24.84;39.87
9521;BME280;4798;41.574;23.734;2022-10-16T08:33:54;96065.69;;;24.95;38.76
9521;BME280;4798;41.574;23.734;2022-10-16T08:36:23;96064.75;;;25.15;39.30
9521;BME280;4798;41.574;23.734;2022-10-16T08:38:51;95998.41;;;25.84;38.43
9521;BME280;4798;41.574;23.734;2022-10-16T08:41:35;96053.41;;;26.75;37.67
9521;BME280;4798;41.574;23.734;2022-10-16T08:44:32;96055.81;;;25.27;38.74
9521;BME280;4798;41.574;23.734;2022-10-16T08:47:10;96051.97;;;25.56;38.43
9521;BME280;4798;41.574;23.734;2022-10-16T08:49:42;96045.16;;;26.21;38.10
9521;BME280;4798;41.574;23.734;2022-10-16T08:52:15;96050.25;;;27.42;37.31
9521;BME280;4798;41.574;23.734;2022-10-16T08:54:46;96039.72;;;28.02;34.37
9521;BME280;4798;41.574;23.734;2022-10-16T08:57:20;96046.78;;;28.06;34.85
9521;BME280;4798;41.574;23.734;2022-10-16T08:59:50;96001.16;;;28.75;33.62
9521;BME280;4798;41.574;23.734;2022-10-16T09:02:25;96046.75;;;27.84;36.06
9521;BME280;4798;41.574;23.734;2022-10-16T09:05:08;96021.28;;;27.95;35.23
9521;BME280;4798;41.574;23.734;2022-10-16T09:07:48;96046.44;;;28.30;34.68
9521;BME280;4798;41.574;23.734;2022-10-16T09:10:35;96031.22;;;29.08;33.51
9521;BME280;4798;41.574;23.734;2022-10-16T09:13:17;95990.56;;;29.00;32.96
9521;BME280;4798;41.574;23.734;2022-10-16T09:15:53;96030.38;;;28.74;33.50
9521;BME280;4798;41.574;23.734;2022-10-16T09:18:27;96032.78;;;28.53;34.11
9521;BME280;4798;41.574;23.734;2022-10-16T09:21:03;96002.44;;;28.32;33.76
9521;BME280;4798;41.574;23.734;2022-10-16T09:23:36;96025.69;;;28.49;33.08
9521;BME280;4798;41.574;23.734;2022-10-16T09:26:09;96014.03;;;28.52;33.00
9521;BME280;4798;41.574;23.734;2022-10-16T09:28:39;95961.47;;;28.81;33.42
9521;BME280;4798;41.574;23.734;2022-10-16T09:31:15;96016.56;;;29.20;33.65
9521;BME280;4798;41.574;23.734;2022-10-16T09:33:48;96009.88;;;30.21;32.01
9521;BME280;4798;41.574;23.734;2022-10-16T09:36:19;96004.84;;;29.82;31.31
9521;BME280;4798;41.574;23.734;2022-10-16T09:38:48;95996.25;;;30.28;30.65
9521;BME280;4798;41.574;23.734;2022-10-16T09:41:19;95997.88;;;29.55;31.52
9521;BME280;4798;41.574;23.734;2022-10-16T09:43:53;95984.03;;;30.69;30.21
9521;BME280;4798;41.574;23.734;2022-10-16T09:46:26;95991.56;;;29.84;31.20
9521;BME280;4798;41.574;23.734;2022-10-16T09:48:57;95989.94;;;28.31;32.21
9521;BME280;4798;41.574;23.734;2022-10-16T09:51:28;95933.94;;;28.11;32.36
9521;BME280;4798;41.574;23.734;2022-10-16T09:53:59;95977.84;;;28.81;31.63
9521;BME280;4798;41.574;23.734;2022-10-16T09:56:29;95991.19;;;29.49;32.31
9521;BME280;4798;41.574;23.734;2022-10-16T09:59:03;95982.69;;;30.42;31.60
9521;BME280;4798;41.574;23.734;2022-10-16T10:01:38;95975.91;;;29.78;30.38
9521;BME280;4798;41.574;23.734;2022-10-16T10:04:08;95971.94;;;28.75;30.50
9521;BME280;4798;41.574;23.734;2022-10-16T10:06:41;95978.72;;;29.18;30.64
9521;BME280;4798;41.574;23.734;2022-10-16T10:09:17;95967.22;;;29.72;30.63
9521;BME280;4798;41.574;23.734;2022-10-16T10:11:50;95943.84;;;30.22;29.98
9521;BME280;4798;41.574;23.734;2022-10-16T10:14:26;95955.22;;;30.28;30.00
9521;BME280;4798;41.574;23.734;2022-10-16T10:17:16;95952.63;;;30.49;29.27
9521;BME280;4798;41.574;23.734;2022-10-16T10:19:50;95948.78;;;30.06;30.23
9521;BME280;4798;41.574;23.734;2022-10-16T10:22:25;95950.38;;;31.48;29.01
9521;BME280;4798;41.574;23.734;2022-10-16T10:24:56;95950.75;;;30.60;28.45
9521;BME280;4798;41.574;23.734;2022-10-16T10:27:32;95951.56;;;30.64;28.90
9521;BME280;4798;41.574;23.734;2022-10-16T10:30:15;95939.88;;;32.34;27.45
9521;BME280;4798;41.574;23.734;2022-10-16T10:32:55;95941.78;;;30.08;28.51
9521;BME280;4798;41.574;23.734;2022-10-16T10:35:35;95935.53;;;31.49;28.67
9521;BME280;4798;41.574;23.734;2022-10-16T10:38:17;95932.69;;;31.24;28.07
9521;BME280;4798;41.574;23.734;2022-10-16T10:40:52;95929.94;;;31.27;27.86
9521;BME280;4798;41.574;23.734;2022-10-16T10:43:35;95922.44;;;30.96;28.22
9521;BME280;4798;41.574;23.734;2022-10-16T10:46:14;95922.09;;;31.15;27.70
9521;BME280;4798;41.574;23.734;2022-10-16T10:49:02;95920.78;;;30.19;28.15
9521;BME280;4798;41.574;23.734;2022-10-16T10:51:42;95919.97;;;30.15;27.76
9521;BME280;4798;41.574;23.734;2022-10-16T10:54:17;95912.78;;;29.97;28.28
9521;BME280;4798;41.574;23.734;2022-10-16T10:56:52;95907.78;;;30.67;27.09
9521;BME280;4798;41.574;23.734;2022-10-16T11:02:33;95905.16;;;29.32;28.59
9521;BME280;4798;41.574;23.734;2022-10-16T11:05:28;95900.41;;;30.10;28.28
9521;BME280;4798;41.574;23.734;2022-10-16T11:08:01;95910.97;;;28.94;28.49
9521;BME280;4798;41.574;23.734;2022-10-16T11:10:34;95893.34;;;30.05;28.12
9521;BME280;4798;41.574;23.734;2022-10-16T11:13:16;95889.09;;;30.87;26.64
9521;BME280;4798;41.574;23.734;2022-10-16T11:15:48;95889.78;;;29.54;27.20
9521;BME280;4798;41.574;23.734;2022-10-16T11:18:24;95860.06;;;29.96;27.02
9521;BME280;4798;41.574;23.734;2022-10-16T11:20:56;95885.81;;;31.64;26.30
9521;BME280;4798;41.574;23.734;2022-10-16T11:23:28;95879.47;;;31.25;26.52
9521;BME280;4798;41.574;23.734;2022-10-16T11:26:01;95879.03;;;31.12;27.46
9521;BME280;4798;41.574;23.734;2022-10-16T11:28:35;95883.47;;;29.94;26.90
9521;BME280;4798;41.574;23.734;2022-10-16T11:31:11;95882.16;;;30.97;26.22
9521;BME280;4798;41.574;23.734;2022-10-16T11:33:46;95874.69;;;30.22;26.02
9521;BME280;4798;41.574;23.734;2022-10-16T11:36:19;95878.47;;;30.68;26.55
9521;BME280;4798;41.574;23.734;2022-10-16T11:38:56;95834.06;;;31.27;25.48
9521;BME280;4798;41.574;23.734;2022-10-16T11:41:29;95865.44;;;32.25;25.57
9521;BME280;4798;41.574;23.734;2022-10-16T11:44:18;95815.56;;;30.78;25.51
9521;BME280;4798;41.574;23.734;2022-10-16T11:47:05;95863.97;;;30.57;25.90
9521;BME280;4798;41.574;23.734;2022-10-16T11:50:02;95855.28;;;29.39;27.13
9521;BME280;4798;41.574;23.734;2022-10-16T11:52:36;95848.44;;;29.63;26.98
9521;BME280;4798;41.574;23.734;2022-10-16T11:55:14;95856.16;;;29.50;27.27
9521;BME280;4798;41.574;23.734;2022-10-16T11:57:47;95859.78;;;29.61;27.04
9521;BME280;4798;41.574;23.734;2022-10-16T12:00:22;95859.53;;;29.00;27.13
9521;BME280;4798;41.574;23.734;2022-10-16T12:03:00;95858.56;;;30.02;26.33
9521;BME280;4798;41.574;23.734;2022-10-16T12:05:52;95859.31;;;28.78;27.08
9521;BME280;4798;41.574;23.734;2022-10-16T12:08:23;95862.81;;;28.49;26.74
9521;BME280;4798;41.574;23.734;2022-10-16T12:10:51;95854.28;;;28.80;26.75
9521;BME280;4798;41.574;23.734;2022-10-16T12:13:32;95852.63;;;29.93;25.73
9521;BME280;4798;41.574;23.734;2022-10-16T12:16:07;95828.47;;;30.78;24.69
9521;BME280;4798;41.574;23.734;2022-10-16T12:18:47;95835.63;;;31.04;24.67
9521;BME280;4798;41.574;23.734;2022-10-16T12:21:17;95855.88;;;30.89;24.71
9521;BME280;4798;41.574;23.734;2022-10-16T12:23:48;95849.69;;;30.19;24.78
9521;BME280;4798;41.574;23.734;2022-10-16T12:26:25;95848.41;;;30.82;24.53
9521;BME280;4798;41.574;23.734;2022-10-16T12:28:55;95849.00;;;31.79;23.54
9521;BME280;4798;41.574;23.734;2022-10-16T12:31:44;95849.22;;;30.86;24.40
9521;BME280;4798;41.574;23.734;2022-10-16T12:34:28;95846.56;;;32.45;23.30
9521;BME280;4798;41.574;23.734;2022-10-16T12:37:09;95845.63;;;32.90;22.84
9521;BME280;4798;41.574;23.734;2022-10-16T12:39:39;95856.06;;;31.63;23.59
9521;BME280;4798;41.574;23.734;2022-10-16T12:42:23;95850.44;;;30.92;23.66
9521;BME280;4798;41.574;23.734;2022-10-16T12:44:52;95858.44;;;30.43;24.26
9521;BME280;4798;41.574;23.734;2022-10-16T12:47:23;95860.50;;;30.63;24.57
9521;BME280;4798;41.574;23.734;2022-10-16T12:49:53;95857.75;;;29.51;25.08
9521;BME280;4798;41.574;23.734;2022-10-16T12:52:36;95861.50;;;28.99;24.66
9521;BME280;4798;41.574;23.734;2022-10-16T12:55:17;95846.69;;;30.42;24.82
9521;BME280;4798;41.574;23.734;2022-10-16T12:57:58;95858.13;;;30.69;24.31
9521;BME280;4798;41.574;23.734;2022-10-16T13:00:33;95850.91;;;29.75;24.14
9521;BME280;4798;41.574;23.734;2022-10-16T13:03:47;95847.50;;;29.88;24.49
9521;BME280;4798;41.574;23.734;2022-10-16T13:06:28;95861.66;;;30.69;25.10
9521;BME280;4798;41.574;23.734;2022-10-16T13:09:14;95851.38;;;31.49;23.16
9521;BME280;4798;41.574;23.734;2022-10-16T13:12:03;95866.97;;;29.36;23.75
9521;BME280;4798;41.574;23.734;2022-10-16T13:17:48;95867.00;;;28.13;25.26
9521;BME280;4798;41.574;23.734;2022-10-16T13:20:26;95861.25;;;28.78;25.90
9521;BME280;4798;41.574;23.734;2022-10-16T13:23:02;95873.56;;;29.35;25.56
9521;BME280;4798;41.574;23.734;2022-10-16T13:25:43;95863.94;;;29.44;25.36
9521;BME280;4798;41.574;23.734;2022-10-16T13:28:22;95873.66;;;29.82;24.25
9521;BME280;4798;41.574;23.734;2022-10-16T13:30:57;95869.25;;;30.29;24.31
9521;BME280;4798;41.574;23.734;2022-10-16T13:33:31;95870.00;;;29.71;24.22
9521;BME280;4798;41.574;23.734;2022-10-16T13:36:00;95875.63;;;28.45;25.52
9521;BME280;4798;41.574;23.734;2022-10-16T13:38:30;95869.69;;;28.10;25.42
9521;BME280;4798;41.574;23.734;2022-10-16T13:41:02;95875.44;;;28.31;25.04
9521;BME280;4798;41.574;23.734;2022-10-16T13:43:34;95877.22;;;29.09;26.28
9521;BME280;4798;41.574;23.734;2022-10-16T13:46:05;95875.44;;;29.24;24.32